createdAt,value
2023-02-25T00:01:57.711Z,100.00
2023-02-25T00:07:00.285Z,100.00
2023-02-25T00:11:56.721Z,100.00
2023-02-25T00:16:56.390Z,100.00
2023-02-25T00:21:52.882Z,100.00
2023-02-25T00:26:49.382Z,100.00
2023-02-25T00:31:46.584Z,100.00
2023-02-25T00:36:43.475Z,100.00
2023-02-25T00:41:39.906Z,100.00
2023-02-25T00:46:36.385Z,100.00
2023-02-25T00:51:33.605Z,100.00
2023-02-25T00:56:30.028Z,100.00
2023-02-25T01:01:29.379Z,100.00
2023-02-25T01:06:27.929Z,100.00
2023-02-25T01:11:30.207Z,100.00
2023-02-25T01:16:29.527Z,100.00
2023-02-25T01:21:32.477Z,100.00
2023-02-25T01:26:31.970Z,100.00
2023-02-25T01:31:29.414Z,100.00
2023-02-25T01:36:27.241Z,100.00
2023-02-25T01:41:25.886Z,100.00
2023-02-25T01:46:22.678Z,100.00
2023-02-25T01:51:19.258Z,100.00
2023-02-25T01:56:20.553Z,100.00
2023-02-25T02:01:20.850Z,100.00
2023-02-25T02:06:38.783Z,100.00
2023-02-25T02:11:35.249Z,100.00
2023-02-25T02:16:53.014Z,100.00
2023-02-25T02:22:03.267Z,100.00
2023-02-25T02:27:23.112Z,100.00
2023-02-25T02:32:25.448Z,100.00
2023-02-25T02:37:25.960Z,100.00
2023-02-25T02:42:27.097Z,100.00
2023-02-25T02:47:34.522Z,100.00
2023-02-25T02:52:34.845Z,100.00
2023-02-25T02:57:33.616Z,100.00
2023-02-25T03:02:36.755Z,100.00
2023-02-25T03:07:39.779Z,100.00
2023-02-25T03:12:38.776Z,100.00
2023-02-25T03:17:41.227Z,100.00
2023-02-25T03:22:39.398Z,100.00
2023-02-25T03:27:39.780Z,100.00
2023-02-25T03:32:38.332Z,100.00
2023-02-25T03:37:38.816Z,100.00
2023-02-25T03:42:38.918Z,100.00
2023-02-25T03:47:37.370Z,100.00
2023-02-25T03:52:34.401Z,100.00
2023-02-25T03:57:37.405Z,100.00
2023-02-25T04:02:33.884Z,100.00
2023-02-25T04:07:30.297Z,100.00
2023-02-25T04:12:27.383Z,100.00
2023-02-25T04:17:23.836Z,100.00
2023-02-25T04:22:20.320Z,100.00
2023-02-25T04:27:16.890Z,100.00
2023-02-25T04:32:13.479Z,100.00
2023-02-25T04:37:10.073Z,100.00
2023-02-25T04:42:06.483Z,100.00
2023-02-25T04:47:03.188Z,100.00
2023-02-25T04:51:59.833Z,100.00
2023-02-25T04:56:56.329Z,100.00
2023-02-25T05:01:52.727Z,100.00
2023-02-25T05:06:49.231Z,100.00
2023-02-25T05:11:45.666Z,100.00
2023-02-25T05:16:42.154Z,100.00
2023-02-25T05:21:38.578Z,100.00
2023-02-25T05:26:35.104Z,100.00
2023-02-25T05:31:31.608Z,100.00
2023-02-25T05:36:28.776Z,100.00
2023-02-25T05:41:26.232Z,100.00
2023-02-25T05:46:23.102Z,100.00
2023-02-25T05:51:23.362Z,100.00
2023-02-25T05:56:25.393Z,100.00
2023-02-25T06:01:24.990Z,100.00
2023-02-25T06:06:23.484Z,100.00
2023-02-25T06:11:23.610Z,100.00
2023-02-25T06:16:21.021Z,100.00
2023-02-25T06:21:17.844Z,100.00
2023-02-25T06:26:14.621Z,100.00
2023-02-25T06:31:14.702Z,100.00
2023-02-25T06:36:12.125Z,100.00
2023-02-25T06:41:17.506Z,100.00
2023-02-25T06:46:14.905Z,100.00
2023-02-25T06:51:12.724Z,100.00
2023-02-25T06:56:11.457Z,100.00
2023-02-25T07:01:09.786Z,100.00
2023-02-25T07:06:06.582Z,100.00
2023-02-25T07:11:15.610Z,100.00
2023-02-25T07:16:13.115Z,100.00
2023-02-25T07:21:12.130Z,100.00
2023-02-25T07:26:10.743Z,100.00
2023-02-25T07:31:17.119Z,100.00
2023-02-25T07:36:14.643Z,100.00
2023-02-25T07:41:13.954Z,100.00
2023-02-25T07:46:11.029Z,100.00
2023-02-25T07:51:17.075Z,100.00
2023-02-25T07:56:13.864Z,100.00
2023-02-25T08:01:26.311Z,100.00
2023-02-25T08:06:23.781Z,100.00
2023-02-25T08:11:21.050Z,100.00
2023-02-25T08:16:19.471Z,100.00
2023-02-25T08:21:18.035Z,100.00
2023-02-25T08:26:17.415Z,100.00
2023-02-25T08:31:14.118Z,100.00
2023-02-25T08:36:16.902Z,100.00
2023-02-25T08:41:13.992Z,100.00
2023-02-25T08:46:10.475Z,100.00
2023-02-25T08:51:09.801Z,100.00
2023-02-25T08:56:07.727Z,100.00
2023-02-25T09:01:12.789Z,100.00
2023-02-25T09:06:09.327Z,100.00
2023-02-25T09:11:06.191Z,100.00
2023-02-25T09:16:02.820Z,100.00
2023-02-25T09:20:59.296Z,100.00
2023-02-25T09:25:55.748Z,100.00
2023-02-25T09:30:52.202Z,100.00
2023-02-25T09:35:48.613Z,100.00
2023-02-25T09:40:49.046Z,100.00
2023-02-25T09:45:47.808Z,100.00
2023-02-25T09:50:51.953Z,100.00
2023-02-25T09:55:51.606Z,100.00
2023-02-25T10:01:04.326Z,100.00
2023-02-25T10:06:07.341Z,100.00
2023-02-25T10:11:09.206Z,100.00
2023-02-25T10:16:46.105Z,100.00
2023-02-25T10:21:42.563Z,100.00
2023-02-25T10:26:45.277Z,100.00
2023-02-25T10:31:45.704Z,100.00
2023-02-25T10:36:46.177Z,100.00
2023-02-25T10:41:42.607Z,100.00
2023-02-25T10:46:46.949Z,100.00
2023-02-25T10:52:19.367Z,100.00
2023-02-25T10:57:27.579Z,100.00
2023-02-25T11:02:28.289Z,100.00
2023-02-25T11:07:34.057Z,100.00
2023-02-25T11:12:39.316Z,100.00
2023-02-25T11:17:35.738Z,100.00
2023-02-25T11:22:37.496Z,100.00
2023-02-25T11:27:39.882Z,100.00
2023-02-25T11:32:42.933Z,100.00
2023-02-25T11:37:43.162Z,100.00
2023-02-25T11:42:41.710Z,100.00
2023-02-25T11:47:38.760Z,100.00
2023-02-25T11:52:58.755Z,100.00
2023-02-25T11:58:15.553Z,100.00
2023-02-25T12:03:48.353Z,100.00
2023-02-25T12:09:06.671Z,100.00
2023-02-25T12:14:44.962Z,100.00
2023-02-25T12:20:01.504Z,100.00
2023-02-25T12:25:22.646Z,100.00
2023-02-25T12:30:51.622Z,100.00
2023-02-25T12:36:11.949Z,100.00
2023-02-25T12:41:35.633Z,100.00
2023-02-25T12:47:07.234Z,100.00
2023-02-25T12:52:29.157Z,100.00
2023-02-25T12:58:07.673Z,100.00
2023-02-25T13:03:39.636Z,100.00
2023-02-25T13:09:01.270Z,100.00
2023-02-25T13:14:18.678Z,100.00
2023-02-25T13:19:34.204Z,100.00
2023-02-25T13:25:24.030Z,100.00
2023-02-25T13:30:23.916Z,100.00
2023-02-25T13:35:56.110Z,100.00
2023-02-25T13:41:04.911Z,100.00
2023-02-25T13:46:27.744Z,98.15
2023-02-25T13:51:42.853Z,100.00
2023-02-25T13:57:19.423Z,98.99
2023-02-25T14:02:40.388Z,88.40
2023-02-25T14:07:52.924Z,86.90
2023-02-25T14:13:22.206Z,78.94
2023-02-25T14:18:46.547Z,75.07
2023-02-25T14:23:56.017Z,85.13
2023-02-25T14:29:10.564Z,88.12
2023-02-25T14:34:16.052Z,90.80
2023-02-25T14:39:31.068Z,91.89
2023-02-25T14:45:08.772Z,100.00
2023-02-25T14:50:14.565Z,100.00
2023-02-25T14:55:30.194Z,85.88
2023-02-25T15:00:33.607Z,76.24
2023-02-25T15:05:53.808Z,92.22
2023-02-25T15:11:14.017Z,81.18
2023-02-25T15:16:53.782Z,83.17
2023-02-25T15:21:52.161Z,83.36
2023-02-25T15:26:49.855Z,100.00
2023-02-25T15:32:22.826Z,100.00
2023-02-25T15:37:22.087Z,100.00
2023-02-25T15:42:40.448Z,100.00
2023-02-25T15:47:37.213Z,100.00
2023-02-25T15:52:52.928Z,100.00
2023-02-25T15:57:49.321Z,100.00
2023-02-25T16:02:46.256Z,100.00
2023-02-25T16:07:45.434Z,100.00
2023-02-25T16:12:43.943Z,100.00
2023-02-25T16:17:40.447Z,100.00
2023-02-25T16:22:37.504Z,100.00
2023-02-25T16:28:09.116Z,100.00
2023-02-25T16:33:42.311Z,100.00
2023-02-25T16:38:47.428Z,100.00
2023-02-25T16:43:44.518Z,100.00
2023-02-25T16:48:58.422Z,100.00
2023-02-25T16:53:59.710Z,100.00
2023-02-25T16:59:09.025Z,100.00
2023-02-25T17:04:16.378Z,100.00
2023-02-25T17:09:24.443Z,100.00
2023-02-25T17:14:21.185Z,100.00
2023-02-25T17:19:23.085Z,100.00
2023-02-25T17:24:24.174Z,100.00
2023-02-25T17:29:21.575Z,100.00
2023-02-25T17:34:25.718Z,100.00
2023-02-25T17:39:22.561Z,100.00
2023-02-25T17:44:41.397Z,100.00
2023-02-25T17:49:38.854Z,100.00
2023-02-25T17:54:38.189Z,100.00
2023-02-25T17:59:40.749Z,100.00
2023-02-25T18:04:39.008Z,100.00
2023-02-25T18:09:35.325Z,100.00
2023-02-25T18:14:44.052Z,100.00
2023-02-25T18:19:45.578Z,100.00
2023-02-25T18:24:52.944Z,100.00
2023-02-25T18:29:49.389Z,100.00
2023-02-25T18:34:45.974Z,100.00
2023-02-25T18:39:42.422Z,100.00
2023-02-25T18:44:38.891Z,100.00
2023-02-25T18:49:35.332Z,100.00
2023-02-25T18:54:31.757Z,100.00
2023-02-25T18:59:28.149Z,100.00
2023-02-25T19:04:24.605Z,100.00
2023-02-25T19:09:21.008Z,100.00
2023-02-25T19:14:18.397Z,100.00
2023-02-25T19:19:14.883Z,100.00
2023-02-25T19:24:12.063Z,100.00
2023-02-25T19:29:08.480Z,100.00
2023-02-25T19:34:04.903Z,100.00
2023-02-25T19:39:01.336Z,100.00
2023-02-25T19:43:57.721Z,100.00
2023-02-25T19:48:54.107Z,100.00
2023-02-25T19:53:50.544Z,100.00
2023-02-25T19:58:47.307Z,100.00
2023-02-25T20:03:43.687Z,100.00
2023-02-25T20:08:40.315Z,100.00
2023-02-25T20:13:38.274Z,100.00
2023-02-25T20:18:34.723Z,100.00
2023-02-25T20:23:31.113Z,100.00
2023-02-25T20:28:27.503Z,100.00
2023-02-25T20:33:23.882Z,100.00
2023-02-25T20:38:38.034Z,100.00
2023-02-25T20:43:34.494Z,100.00
2023-02-25T20:48:32.292Z,100.00
2023-02-25T20:53:28.845Z,100.00
2023-02-25T20:58:25.223Z,100.00
2023-02-25T21:03:21.620Z,100.00
2023-02-25T21:08:17.999Z,100.00
2023-02-25T21:13:15.811Z,100.00
2023-02-25T21:18:12.337Z,100.00
2023-02-25T21:23:11.257Z,100.00
2023-02-25T21:28:07.935Z,100.00
2023-02-25T21:33:05.250Z,100.00
2023-02-25T21:38:02.300Z,100.00
2023-02-25T21:42:59.307Z,100.00
2023-02-25T21:47:55.686Z,100.00
2023-02-25T21:52:52.150Z,100.00
2023-02-25T21:57:48.590Z,100.00
2023-02-25T22:02:44.956Z,100.00
2023-02-25T22:07:41.374Z,100.00
2023-02-25T22:12:37.839Z,100.00
2023-02-25T22:17:34.316Z,100.00
2023-02-25T22:22:30.729Z,100.00
2023-02-25T22:27:27.308Z,100.00
2023-02-25T22:32:23.869Z,100.00
2023-02-25T22:37:20.315Z,100.00
2023-02-25T22:42:16.694Z,100.00
2023-02-25T22:47:13.134Z,100.00
2023-02-25T22:52:09.569Z,100.00
2023-02-25T22:57:05.936Z,100.00
2023-02-25T23:02:02.700Z,100.00
2023-02-25T23:07:00.878Z,100.00
2023-02-25T23:11:57.389Z,100.00
2023-02-25T23:16:53.754Z,100.00
2023-02-25T23:21:50.138Z,100.00
2023-02-25T23:26:49.984Z,100.00
2023-02-25T23:31:47.947Z,100.00
2023-02-25T23:36:45.141Z,100.00
2023-02-25T23:41:41.915Z,100.00
2023-02-25T23:46:39.485Z,100.00
2023-02-25T23:51:36.626Z,100.00
2023-02-25T23:56:34.222Z,100.00
